KLNA/LNA METAR and TAF weather

Enter ICAO airport designator
Station Type Date Time Source
KLNA METAR 2024/02/21 01:55 UTC NOAA

KLNA 210155Z AUTO 30004KT CLR 17/09 A3022 RMK AO2 T01650093


Station Type Date Time Source
KLNA Decoded METAR 2024/02/21 01:55 UTC NOAA

Station name not available
Feb 20, 2024 - 08:55 PM EST / 2024.02.21 0155 UTC
Wind: from the WNW (300 degrees) at 5 MPH (4 KT):0
Sky conditions: clear
Temperature: 61.7 F (16.5 C)
Dew Point: 48.7 F (9.3 C)
Relative Humidity: 62%
Pressure (altimeter): 30.22 in. Hg (1023 hPa)
ob: KLNA 210155Z AUTO 30004KT CLR 17/09 A3022 RMK AO2 T01650093
cycle: 2

Station Type Date Time Source
KLNA TAF UTC NOAA

Error!

Example: see airport list